Time;durP1;ratioP1;P1;durP2;ratioP2;P2;SDS_P1;SDS_P2;PMS_P1;PMS_P2;Temp;Humidity;BMP_temperature;BMP_pressure;BME280_temperature;BME280_humidity;BME280_pressure;Samples;Min_cycle;Max_cycle;Signal;HPM_P1;HPM_P2
2022/07/05 00:01:33;;;;;;;4.30;2.15;;;;;;;23.95;43.71;95002.13;4954846;29;20552;-76
2022/07/05 00:03:59;;;;;;;7.15;2.70;;;;;;;23.65;43.84;94958.44;4937710;29;20202;-76
2022/07/05 00:06:24;;;;;;;4.82;2.67;;;;;;;23.81;44.12;95001.25;4954860;29;20222;-76
2022/07/05 00:08:50;;;;;;;2.38;2.17;;;;;;;23.80;44.09;95002.31;4954760;29;20249;-76
2022/07/05 00:11:15;;;;;;;5.00;2.15;;;;;;;23.76;44.07;94995.94;4954854;29;20613;-76
2022/07/05 00:13:41;;;;;;;4.38;1.92;;;;;;;23.48;44.40;94966.16;4954928;29;20183;-76
2022/07/05 00:16:06;;;;;;;4.90;2.28;;;;;;;23.58;45.51;94982.19;4954800;29;20182;-76
2022/07/05 00:18:32;;;;;;;8.35;2.20;;;;;;;23.55;47.07;94992.72;4954763;29;20211;-76
2022/07/05 00:20:57;;;;;;;2.83;2.17;;;;;;;23.50;47.45;94998.16;4954812;29;20576;-76
2022/07/05 00:23:23;;;;;;;5.55;2.63;;;;;;;23.41;48.50;94994.50;4954547;29;20238;-77
2022/07/05 00:25:48;;;;;;;4.80;2.72;;;;;;;23.38;49.15;94995.06;4954837;29;20182;-76
2022/07/05 00:28:15;;;;;;;6.50;2.88;;;;;;;23.31;49.56;94990.03;4954707;29;20187;-77
2022/07/05 00:30:40;;;;;;;10.95;2.53;;;;;;;23.25;50.02;94991.19;4954727;29;20245;-76
2022/07/05 00:33:06;;;;;;;6.18;2.85;;;;;;;23.24;46.79;94984.22;4954266;29;20261;-76
2022/07/05 00:35:31;;;;;;;3.22;2.15;;;;;;;23.25;45.36;94983.94;4954316;29;20182;-76
2022/07/05 00:37:57;;;;;;;3.42;2.00;;;;;;;23.25;44.99;94980.44;4954334;29;20638;-76
2022/07/05 00:40:22;;;;;;;3.72;2.38;;;;;;;23.24;46.63;94986.91;4954498;29;20197;-77
2022/07/05 00:42:48;;;;;;;5.30;2.55;;;;;;;23.25;47.07;94985.81;4954450;29;20282;-77
2022/07/05 00:45:13;;;;;;;3.22;2.40;;;;;;;23.19;47.04;94981.56;4937131;29;20186;-76
2022/07/05 00:47:39;;;;;;;4.13;2.70;;;;;;;22.99;47.35;94958.44;4936868;29;20640;-76
2022/07/05 00:50:05;;;;;;;2.00;1.80;;;;;;;23.13;45.15;94974.66;4953983;29;20195;-76
2022/07/05 00:52:31;;;;;;;4.55;2.33;;;;;;;23.08;45.91;94983.59;4954033;29;20221;-76
2022/07/05 00:54:56;;;;;;;2.83;2.13;;;;;;;23.08;45.17;94980.09;4954128;29;20677;-76
2022/07/05 00:57:22;;;;;;;4.15;2.80;;;;;;;23.11;45.75;94985.69;4953003;28;20182;-77
2022/07/05 00:59:49;;;;;;;4.22;2.55;;;;;;;23.09;46.40;94982.47;4954023;29;20190;-76
2022/07/05 01:02:14;;;;;;;2.47;2.20;;;;;;;22.88;47.92;94954.28;4954016;29;20206;-76
2022/07/05 01:04:40;;;;;;;3.42;2.53;;;;;;;23.04;47.69;94984.44;4953656;29;20693;-77
2022/07/05 01:07:05;;;;;;;4.57;2.28;;;;;;;23.00;48.68;94991.47;4953801;29;20649;-76
2022/07/05 01:09:33;;;;;;;5.63;2.35;;;;;;;22.93;47.08;94989.91;4953998;29;20210;-76
2022/07/05 01:11:59;;;;;;;5.53;2.13;;;;;;;22.91;46.60;94996.66;4953681;29;20178;-76
2022/07/05 01:14:24;;;;;;;3.08;2.13;;;;;;;22.91;45.58;94996.66;4953661;29;20177;-76
2022/07/05 01:16:51;;;;;;;4.18;2.72;;;;;;;22.91;45.04;94997.47;4953651;29;20174;-77
2022/07/05 01:19:17;;;;;;;2.92;2.15;;;;;;;22.92;45.02;94992.88;4953554;29;20668;-76
2022/07/05 01:21:44;;;;;;;8.60;2.38;;;;;;;22.92;47.65;94998.25;4953385;29;20181;-76
2022/07/05 01:24:13;;;;;;;2.67;2.17;;;;;;;22.86;48.16;94996.69;4953643;29;20265;-76
2022/07/05 01:26:40;;;;;;;4.78;2.30;;;;;;;22.59;49.45;94968.47;4953515;29;20193;-76
2022/07/05 01:29:07;;;;;;;2.85;2.45;;;;;;;22.73;50.23;95000.84;4953398;29;20186;-76
2022/07/05 01:31:32;;;;;;;9.55;3.05;;;;;;;22.72;50.56;95004.59;4953468;29;20810;-77
2022/07/05 01:33:58;;;;;;;4.82;2.80;;;;;;;22.61;51.29;94997.72;4953248;29;20186;-76
2022/07/05 01:36:23;;;;;;;5.43;2.72;;;;;;;22.46;51.79;94998.66;4953278;29;20189;-76
2022/07/05 01:38:50;;;;;;;7.18;4.03;;;;;;;22.28;52.14;94977.88;4953560;29;20178;-77
2022/07/05 01:41:16;;;;;;;13.25;8.70;;;;;;;22.33;53.04;94996.63;4953172;29;20185;-76
2022/07/05 01:43:41;;;;;;;11.27;3.80;;;;;;;22.05;53.58;94957.97;4953156;29;20202;-76
2022/07/05 01:46:08;;;;;;;9.88;7.60;;;;;;;22.22;53.74;94986.25;4952962;29;20189;-76
2022/07/05 01:48:36;;;;;;;5.07;3.15;;;;;;;22.16;54.00;94986.28;4952905;29;20233;-76
2022/07/05 01:51:13;;;;;;;8.48;4.10;;;;;;;22.06;54.79;94985.56;4953124;29;20178;-76
2022/07/05 01:53:41;;;;;;;7.25;4.30;;;;;;;22.01;54.99;94999.00;4953080;29;20176;-77
2022/07/05 01:56:06;;;;;;;9.27;5.18;;;;;;;21.80;55.86;94966.94;4953028;29;20692;-76
2022/07/05 01:58:32;;;;;;;7.10;3.38;;;;;;;21.92;55.48;94990.72;4952789;29;20267;-76
2022/07/05 02:00:59;;;;;;;5.40;3.75;;;;;;;21.80;56.42;94979.53;4952812;29;20178;-76
2022/07/05 02:03:25;;;;;;;7.40;3.10;;;;;;;21.79;56.30;94980.63;4952889;29;20198;-76
2022/07/05 02:05:52;;;;;;;4.57;3.03;;;;;;;21.81;56.74;94983.81;4952441;29;20676;-76
2022/07/05 02:08:20;;;;;;;4.47;3.50;;;;;;;21.65;56.72;94987.66;4952486;28;20217;-76
2022/07/05 02:10:45;;;;;;;9.23;3.97;;;;;;;21.51;56.95;94965.25;4934556;29;20187;-76
2022/07/05 02:13:12;;;;;;;14.77;6.15;;;;;;;21.61;57.24;94983.94;4952564;29;20237;-75
2022/07/05 02:15:40;;;;;;;16.20;9.93;;;;;;;21.56;57.67;94994.69;4952304;29;20269;-75
2022/07/05 02:18:07;;;;;;;14.40;7.45;;;;;;;21.55;58.24;94998.44;4952248;29;20241;-75
2022/07/05 02:20:34;;;;;;;9.52;6.68;;;;;;;21.54;57.96;94997.63;4952395;29;20261;-75
2022/07/05 02:23:00;;;;;;;12.48;5.72;;;;;;;21.48;58.11;94995.25;4952476;29;20769;-75
2022/07/05 02:25:25;;;;;;;11.10;5.18;;;;;;;21.27;58.50;94973.13;4952404;29;20264;-75
2022/07/05 02:27:52;;;;;;;19.60;13.10;;;;;;;21.37;59.17;95000.66;4952318;29;20255;-75
2022/07/05 02:30:18;;;;;;;17.17;9.23;;;;;;;21.26;59.00;95003.66;4952359;29;20189;-75
2022/07/05 02:32:44;;;;;;;22.75;9.30;;;;;;;21.19;58.92;95003.94;4952270;29;20182;-75
2022/07/05 02:35:10;;;;;;;14.20;6.97;;;;;;;21.01;59.08;94981.22;4952327;29;20182;-75
2022/07/05 02:37:36;;;;;;;29.75;15.38;;;;;;;21.08;59.62;95005.84;4952451;29;20214;-75
2022/07/05 02:40:03;;;;;;;15.10;9.02;;;;;;;21.03;59.77;95007.72;4952292;29;20213;-75
2022/07/05 02:42:28;;;;;;;9.02;4.95;;;;;;;20.88;60.67;95013.91;4952160;29;20211;-75
2022/07/05 02:44:54;;;;;;;8.52;4.50;;;;;;;20.88;59.95;95016.59;4934905;29;20225;-75
2022/07/05 02:47:19;;;;;;;6.10;4.00;;;;;;;20.82;60.63;95009.66;4952056;29;20190;-75
2022/07/05 02:49:45;;;;;;;14.23;8.35;;;;;;;20.87;61.22;95020.34;4952010;29;20178;-75
2022/07/05 02:52:10;;;;;;;10.38;6.85;;;;;;;20.92;60.44;95020.34;4952179;29;20236;-75
2022/07/05 02:54:36;;;;;;;14.20;7.28;;;;;;;20.75;60.30;95019.84;4951949;29;20329;-75
2022/07/05 02:57:02;;;;;;;12.52;5.68;;;;;;;20.70;60.44;95017.97;4951956;29;20189;-75
2022/07/05 02:59:27;;;;;;;12.38;7.50;;;;;;;20.70;61.63;95027.84;4951959;29;20636;-75
2022/07/05 03:01:53;;;;;;;14.18;8.80;;;;;;;20.71;60.95;95027.59;4951845;29;20187;-75
2022/07/05 03:04:18;;;;;;;15.07;6.85;;;;;;;20.75;60.92;95013.69;4951574;29;20297;-75
2022/07/05 03:06:44;;;;;;;9.48;5.45;;;;;;;20.73;61.53;95023.84;4951556;29;20244;-75
2022/07/05 03:09:10;;;;;;;8.23;4.20;;;;;;;20.76;61.19;95023.31;4951644;29;20178;-75
2022/07/05 03:11:35;;;;;;;9.75;5.50;;;;;;;20.80;61.85;95024.38;4951573;29;20338;-75
2022/07/05 03:14:01;;;;;;;12.63;4.30;;;;;;;20.83;62.60;95026.50;4951742;29;20183;-75
2022/07/05 03:16:26;;;;;;;9.93;4.18;;;;;;;20.77;62.28;95022.22;4951827;29;20186;-75
2022/07/05 03:18:52;;;;;;;9.80;4.07;;;;;;;20.74;62.53;95028.13;4934363;28;20178;-75
2022/07/05 03:21:17;;;;;;;8.85;4.25;;;;;;;20.76;62.94;95029.44;4954453;29;20182;-75
2022/07/05 03:23:43;;;;;;;8.75;3.70;;;;;;;20.78;62.23;95024.63;4955101;29;20210;-75
2022/07/05 03:26:08;;;;;;;7.78;4.15;;;;;;;20.73;62.13;95019.28;4955243;29;20178;-75
2022/07/05 03:28:34;;;;;;;10.02;4.53;;;;;;;20.61;62.45;95003.53;4955242;29;20210;-75
2022/07/05 03:30:59;;;;;;;6.55;5.00;;;;;;;20.81;61.88;95026.78;4955060;29;20186;-75
2022/07/05 03:33:25;;;;;;;9.35;5.68;;;;;;;20.79;61.19;95020.09;4954957;29;20214;-75
2022/07/05 03:35:50;;;;;;;12.75;6.63;;;;;;;20.81;61.82;95017.94;4955131;29;20575;-75
2022/07/05 03:38:16;;;;;;;8.68;6.45;;;;;;;20.99;61.87;95017.38;4954872;29;20180;-75
2022/07/05 03:40:42;;;;;;;11.13;6.43;;;;;;;21.10;61.24;95018.97;4953363;29;20186;-75
2022/07/05 03:43:07;;;;;;;12.60;6.82;;;;;;;21.23;61.79;95020.28;4952296;28;20202;-77
2022/07/05 03:45:32;;;;;;;15.85;9.27;;;;;;;21.33;61.64;94998.81;4955441;29;20190;-76
2022/07/05 03:47:59;;;;;;;15.00;7.13;;;;;;;21.36;60.26;95000.94;4955188;29;20182;-77
2022/07/05 03:50:25;;;;;;;7.20;3.95;;;;;;;21.59;60.33;95013.69;4955393;29;20178;-77
2022/07/05 03:52:51;;;;;;;9.48;4.80;;;;;;;21.72;60.79;95015.75;4954271;29;20845;-76
2022/07/05 03:55:16;;;;;;;15.20;9.00;;;;;;;21.72;61.28;94990.84;4948337;29;20201;-76
2022/07/05 03:57:41;;;;;;;9.05;7.13;;;;;;;22.04;59.76;95017.22;4947312;29;20212;-76
2022/07/05 04:00:08;;;;;;;13.90;4.80;;;;;;;22.14;58.43;95006.44;4949401;29;20273;-78
2022/07/05 04:02:34;;;;;;;11.43;4.75;;;;;;;22.22;58.81;95016.56;4948624;29;20215;-78
2022/07/05 04:04:59;;;;;;;5.97;4.28;;;;;;;22.39;59.08;95016.16;4949017;29;20257;-78
2022/07/05 04:07:24;;;;;;;7.63;4.10;;;;;;;22.51;58.58;95019.28;4950920;28;20284;-78
2022/07/05 04:09:50;;;;;;;7.68;3.97;;;;;;;22.62;58.12;95015.44;4952804;29;20198;-78
2022/07/05 04:12:15;;;;;;;6.57;4.30;;;;;;;22.76;57.80;95019.09;4951652;29;20233;-78
2022/07/05 04:14:41;;;;;;;12.30;5.95;;;;;;;22.90;57.83;95014.66;4955171;29;20222;-78
2022/07/05 04:17:06;;;;;;;19.48;9.68;;;;;;;23.10;56.95;95020.88;4949730;29;20237;-78
2022/07/05 04:19:32;;;;;;;12.00;7.30;;;;;;;23.16;55.63;95020.56;4948958;29;20196;-78
2022/07/05 04:21:57;;;;;;;13.73;6.00;;;;;;;23.28;56.11;95023.63;4951510;28;20198;-78
2022/07/05 04:24:23;;;;;;;9.68;4.60;;;;;;;23.45;56.26;95015.13;4951008;29;20191;-78
2022/07/05 04:26:48;;;;;;;8.27;4.68;;;;;;;23.47;54.29;94980.69;4953251;29;20190;-78
2022/07/05 04:29:14;;;;;;;10.57;4.13;;;;;;;23.83;54.05;95013.31;4954926;29;20186;-79
2022/07/05 04:31:39;;;;;;;11.70;6.03;;;;;;;23.91;54.30;94993.03;4954372;28;20217;-79
2022/07/05 04:34:04;;;;;;;25.95;14.88;;;;;;;24.25;54.65;95020.53;4971138;28;20646;-79
2022/07/05 04:36:30;;;;;;;28.42;16.48;;;;;;;24.26;52.15;94989.84;4954604;29;20612;-79
2022/07/05 04:38:56;;;;;;;8.73;3.97;;;;;;;24.26;52.67;94971.00;4955441;29;20180;-81
2022/07/05 04:41:21;;;;;;;9.07;4.90;;;;;;;24.70;51.43;95018.22;4955556;29;20178;-79
2022/07/05 04:43:47;;;;;;;8.07;3.85;;;;;;;24.77;51.06;95019.41;4955275;29;20249;-79
2022/07/05 04:46:12;;;;;;;5.53;4.45;;;;;;;24.79;50.33;94997.59;4955332;29;20249;-79
2022/07/05 04:48:37;;;;;;;5.03;3.20;;;;;;;24.92;50.89;95004.09;4954980;29;20229;-81
2022/07/05 04:51:03;;;;;;;6.53;3.67;;;;;;;25.00;51.08;94995.34;4954807;29;20394;-82
2022/07/05 04:53:28;;;;;;;7.80;4.22;;;;;;;25.23;49.68;95005.16;4955574;29;20166;-84
2022/07/05 04:55:54;;;;;;;9.60;3.63;;;;;;;25.46;49.98;95019.53;4937909;29;20192;-84
2022/07/05 04:58:19;;;;;;;4.32;3.35;;;;;;;25.23;48.98;94953.16;4955290;29;20562;-84
2022/07/05 05:00:45;;;;;;;9.48;4.30;;;;;;;25.44;49.33;94965.91;4955089;29;20175;-84
2022/07/05 05:03:10;;;;;;;6.40;3.05;;;;;;;25.81;49.65;94991.84;4955239;29;20202;-84
2022/07/05 05:05:35;;;;;;;11.25;4.95;;;;;;;26.13;48.46;95019.75;4937887;29;20325;-83
2022/07/05 05:08:01;;;;;;;6.78;4.00;;;;;;;25.90;48.58;94979.22;4960510;28;20185;-83
2022/07/05 05:10:26;;;;;;;6.72;3.75;;;;;;;26.29;47.67;95024.50;4957302;28;20182;-83
2022/07/05 05:12:52;;;;;;;7.47;4.03;;;;;;;26.33;46.28;95030.13;4955072;29;20174;-84
2022/07/05 05:15:17;;;;;;;7.68;4.72;;;;;;;26.49;47.37;95031.34;4954846;29;20205;-83
2022/07/05 05:17:43;;;;;;;10.23;4.35;;;;;;;26.37;46.54;94985.22;4955059;29;20258;-84
2022/07/05 05:20:16;;;;;;;13.95;5.90;;;;;;;26.87;47.84;95031.78;4955048;29;20214;-83
2022/07/05 05:22:42;;;;;;;4.50;3.35;;;;;;;27.09;47.05;95030.97;4954855;29;20186;-83
2022/07/05 05:25:09;;;;;;;9.75;4.57;;;;;;;27.27;46.63;95024.53;4954887;29;20202;-83
2022/07/05 05:27:35;;;;;;;5.55;3.08;;;;;;;27.37;46.12;95020.75;4954768;29;20174;-83
2022/07/05 05:30:01;;;;;;;8.38;3.25;;;;;;;27.56;46.60;95031.34;4938704;29;20244;-83
2022/07/05 05:32:26;;;;;;;11.10;5.80;;;;;;;27.30;45.65;94983.34;4954612;29;20182;-83
2022/07/05 05:34:51;;;;;;;13.77;8.95;;;;;;;27.60;45.79;95000.63;4954609;29;20193;-83
2022/07/05 05:37:17;;;;;;;11.20;5.47;;;;;;;27.67;44.16;94990.19;4954408;29;20171;-80
2022/07/05 05:39:42;;;;;;;10.23;3.97;;;;;;;28.02;44.02;95028.13;4955031;29;20712;-80
2022/07/05 05:42:08;;;;;;;8.70;3.85;;;;;;;28.09;44.83;95014.91;4954247;28;20191;-80
2022/07/05 05:44:33;;;;;;;8.00;3.30;;;;;;;28.29;43.25;95025.13;4954209;29;20202;-80
2022/07/05 05:46:59;;;;;;;9.82;3.22;;;;;;;28.44;43.81;95024.69;4954311;29;20182;-80
2022/07/05 05:49:24;;;;;;;6.63;3.45;;;;;;;28.50;43.08;95009.84;4953446;29;20178;-80
2022/07/05 05:51:50;;;;;;;10.05;4.97;;;;;;;28.75;43.15;95021.75;4952365;29;20182;-80
2022/07/05 05:54:15;;;;;;;10.73;4.05;;;;;;;28.82;42.63;95018.59;4952594;29;20305;-80
2022/07/05 05:56:40;;;;;;;6.43;3.58;;;;;;;28.91;42.07;95027.50;4952491;29;20174;-80
2022/07/05 05:59:06;;;;;;;13.15;3.78;;;;;;;28.98;42.99;95021.56;4953868;29;20178;-80
2022/07/05 06:01:31;;;;;;;8.57;4.53;;;;;;;29.13;40.61;95021.88;4954468;29;20175;-80
2022/07/05 06:03:57;;;;;;;10.15;5.13;;;;;;;29.38;40.01;95032.97;4954178;29;20194;-80
2022/07/05 06:06:22;;;;;;;7.75;3.95;;;;;;;29.54;40.58;95029.41;4954130;28;20222;-80
2022/07/05 06:08:48;;;;;;;8.05;4.53;;;;;;;29.50;38.93;95036.59;4954274;29;20193;-80
2022/07/05 06:11:13;;;;;;;9.73;4.22;;;;;;;29.47;40.02;95037.25;4954349;29;20352;-80
2022/07/05 06:13:39;;;;;;;6.28;3.13;;;;;;;29.47;39.94;95020.19;4954331;29;20179;-80
2022/07/05 06:16:08;;;;;;;14.68;4.55;;;;;;;29.81;40.02;95043.66;4955418;29;20186;-80
2022/07/05 06:18:34;;;;;;;8.27;3.35;;;;;;;30.02;39.62;95042.56;4956982;29;20214;-80
2022/07/05 06:20:59;;;;;;;9.80;3.85;;;;;;;30.24;39.76;95038.75;4954605;29;20211;-80
2022/07/05 06:23:25;;;;;;;7.57;3.33;;;;;;;30.34;37.31;95037.59;4957821;28;20194;-80
2022/07/05 06:25:50;;;;;;;10.20;3.30;;;;;;;30.27;37.37;95043.53;4952937;29;20725;-80
2022/07/05 06:28:16;;;;;;;7.40;2.78;;;;;;;30.33;39.15;95042.22;4954327;29;20184;-80
2022/07/05 06:30:42;;;;;;;10.07;2.95;;;;;;;30.33;37.01;95030.56;4954741;29;20578;-80
2022/07/05 06:33:08;;;;;;;6.75;2.95;;;;;;;30.32;37.42;95013.44;4954293;29;20170;-80
2022/07/05 06:35:34;;;;;;;4.70;2.72;;;;;;;30.58;38.92;95045.09;4954526;29;20163;-80
2022/07/05 06:37:59;;;;;;;5.65;3.10;;;;;;;30.59;38.70;95033.09;4954123;29;20205;-80
2022/07/05 06:40:28;;;;;;;7.20;3.70;;;;;;;30.77;37.16;95039.97;4953835;29;20545;-80
2022/07/05 06:43:00;;;;;;;11.48;3.67;;;;;;;30.52;36.96;95032.84;4953824;29;20293;-79
2022/07/05 06:45:25;;;;;;;3.95;3.28;;;;;;;30.62;37.41;95038.63;4953961;29;20272;-79
2022/07/05 06:47:59;;;;;;;3.75;3.00;;;;;;;30.81;38.30;95030.00;4953744;29;20246;-80
2022/07/05 06:50:33;;;;;;;8.98;3.35;;;;;;;31.03;37.97;95031.56;4953548;29;20190;-78
2022/07/05 06:52:59;;;;;;;7.03;3.78;;;;;;;31.22;36.44;95020.19;4953702;29;20289;-77
2022/07/05 06:55:26;;;;;;;3.58;2.80;;;;;;;31.17;34.85;95025.81;4956989;28;20719;-78
2022/07/05 06:57:59;;;;;;;4.90;3.00;;;;;;;31.02;35.54;95011.72;4957644;29;20186;-78
2022/07/05 07:00:25;;;;;;;8.02;3.63;;;;;;;31.05;35.72;95024.63;4950286;29;20269;-78
2022/07/05 07:02:50;;;;;;;4.95;2.67;;;;;;;31.12;36.72;95018.69;4957649;29;20285;-78
2022/07/05 07:05:15;;;;;;;13.90;6.88;;;;;;;31.25;36.01;95016.75;4949099;29;20257;-77
2022/07/05 07:10:25;;;;;;;7.55;3.20;;;;;;;31.51;35.28;95011.81;4954769;29;20193;-77
2022/07/05 07:12:50;;;;;;;4.50;2.80;;;;;;;31.85;36.47;95022.28;4957231;29;20182;-78
2022/07/05 07:15:16;;;;;;;4.50;2.72;;;;;;;31.97;33.26;95015.22;4957077;29;20181;-79
2022/07/05 07:17:41;;;;;;;6.80;3.00;;;;;;;31.91;34.45;95019.34;4956995;29;20182;-77
2022/07/05 07:20:08;;;;;;;11.25;2.60;;;;;;;31.85;35.26;95007.84;4956280;29;20245;-76
2022/07/05 07:22:33;;;;;;;7.03;2.90;;;;;;;31.95;36.76;95028.41;4955749;29;20268;-75
2022/07/05 07:24:58;;;;;;;10.35;3.28;;;;;;;32.14;36.68;95025.88;4955779;29;20549;-75
2022/07/05 07:27:24;;;;;;;10.65;7.13;;;;;;;32.22;34.33;95025.78;4956087;29;20201;-76
2022/07/05 07:29:49;;;;;;;5.78;2.95;;;;;;;31.46;35.28;95022.94;4955571;29;20638;-77
2022/07/05 07:32:15;;;;;;;8.95;2.70;;;;;;;30.99;35.90;95012.38;4956121;29;20721;-79
2022/07/05 07:34:41;;;;;;;7.20;3.15;;;;;;;30.69;37.57;95021.81;4956478;29;20253;-76
2022/07/05 07:37:08;;;;;;;7.93;2.70;;;;;;;30.65;37.59;95018.16;4955657;29;20182;-75
2022/07/05 07:39:34;;;;;;;10.07;2.60;;;;;;;30.94;38.30;95009.09;4955748;29;20178;-80
2022/07/05 07:42:00;;;;;;;3.50;2.60;;;;;;;31.44;37.08;95019.75;4957084;29;20201;-80
2022/07/05 07:44:26;;;;;;;4.38;2.75;;;;;;;31.57;38.42;94998.78;4936641;29;20203;-81
2022/07/05 07:46:52;;;;;;;5.22;3.20;;;;;;;31.43;34.76;94990.94;4957031;29;20656;-79
2022/07/05 07:49:18;;;;;;;4.13;3.05;;;;;;;31.20;35.33;95009.63;4956790;29;20302;-76
2022/07/05 07:51:43;;;;;;;9.25;2.70;;;;;;;30.97;39.41;95013.84;4956039;29;20542;-77
2022/07/05 07:54:09;;;;;;;8.88;3.38;;;;;;;31.29;41.96;95014.97;4956162;29;20186;-77
2022/07/05 07:56:34;;;;;;;6.60;3.10;;;;;;;32.00;34.88;95004.41;4955973;29;20186;-78
2022/07/05 07:59:00;;;;;;;4.13;3.10;;;;;;;32.47;35.30;95017.53;4963257;28;20224;-77
2022/07/05 08:01:25;;;;;;;6.78;3.78;;;;;;;32.70;36.27;95004.16;4975243;28;20197;-78
2022/07/05 08:03:51;;;;;;;3.55;2.75;;;;;;;33.00;35.95;95019.03;4974461;28;20205;-77
2022/07/05 08:06:17;;;;;;;6.72;3.05;;;;;;;33.30;34.25;95022.19;4954986;28;20284;-78
2022/07/05 08:08:47;;;;;;;4.32;3.00;;;;;;;33.48;33.22;95020.69;4951947;28;20235;-76
2022/07/05 08:11:13;;;;;;;6.78;3.55;;;;;;;33.56;32.30;95016.19;4954155;29;20182;-77
2022/07/05 08:13:42;;;;;;;6.70;4.05;;;;;;;33.36;34.53;95012.59;4950984;28;20186;-78
2022/07/05 08:16:09;;;;;;;6.60;3.00;;;;;;;32.91;34.35;95012.94;4954504;29;20179;-78
2022/07/05 08:21:31;;;;;;;4.38;3.03;;;;;;;32.93;33.35;95016.13;4955497;29;21047;-78
2022/07/05 08:24:02;;;;;;;5.32;3.13;;;;;;;32.02;34.01;94993.19;4952491;28;20252;-78
2022/07/05 08:26:30;;;;;;;5.70;3.15;;;;;;;31.95;35.82;95001.94;4961239;28;20185;-76
2022/07/05 08:28:58;;;;;;;4.40;3.15;;;;;;;32.16;36.35;95001.84;4955861;28;20252;-77
2022/07/05 08:31:23;;;;;;;8.00;3.63;;;;;;;32.44;39.00;94999.13;4954761;29;20182;-77
2022/07/05 08:33:49;;;;;;;7.25;4.13;;;;;;;32.86;35.78;95002.31;4954916;29;20193;-77
2022/07/05 08:36:15;;;;;;;6.03;3.50;;;;;;;33.29;35.35;94996.84;4954733;29;20178;-77
2022/07/05 08:38:40;;;;;;;6.45;4.53;;;;;;;33.26;36.00;94994.81;4955326;29;20190;-76
2022/07/05 08:41:07;;;;;;;12.48;5.72;;;;;;;33.27;36.35;94990.94;4954845;29;20170;-77
2022/07/05 08:43:36;;;;;;;6.78;3.95;;;;;;;32.81;35.87;94989.69;4947708;28;20678;-77
2022/07/05 08:46:03;;;;;;;7.30;4.00;;;;;;;33.03;37.40;94974.69;4954000;28;20634;-79
2022/07/05 08:48:30;;;;;;;11.13;5.55;;;;;;;33.37;35.71;94994.28;4954640;29;20249;-77
2022/07/05 08:50:56;;;;;;;7.00;3.08;;;;;;;33.07;34.31;94989.22;4952458;29;20182;-77
2022/07/05 08:53:22;;;;;;;5.22;3.17;;;;;;;33.37;34.56;94988.81;4954858;29;20171;-77
2022/07/05 08:55:48;;;;;;;7.38;3.80;;;;;;;33.39;34.00;94987.31;4955188;29;20190;-77
2022/07/05 08:58:13;;;;;;;3.47;2.78;;;;;;;33.50;32.61;94982.13;4954986;29;20175;-77
2022/07/05 09:00:39;;;;;;;7.13;4.32;;;;;;;33.64;34.09;94971.53;4955009;29;20217;-78
2022/07/05 09:03:06;;;;;;;9.80;3.60;;;;;;;33.92;32.78;94966.75;4954710;29;20689;-77
2022/07/05 09:05:42;;;;;;;4.60;3.40;;;;;;;34.07;32.61;94968.66;4954816;29;20236;-77
2022/07/05 09:08:10;;;;;;;8.27;3.35;;;;;;;34.34;31.51;94972.34;4954545;29;20230;-77
2022/07/05 09:10:37;;;;;;;6.03;3.90;;;;;;;33.99;32.64;94963.41;4954854;29;20229;-77
2022/07/05 09:13:03;;;;;;;10.60;3.17;;;;;;;33.82;32.17;94961.81;4954396;29;20179;-77
2022/07/05 09:15:29;;;;;;;7.03;3.70;;;;;;;33.29;31.90;94963.28;4936830;29;20185;-77
2022/07/05 09:17:55;;;;;;;7.15;3.47;;;;;;;33.29;31.79;94961.34;4917458;29;20626;-79
2022/07/05 09:20:21;;;;;;;6.07;4.20;;;;;;;33.45;33.60;94949.63;4935624;29;20217;-79
2022/07/05 09:22:49;;;;;;;4.70;3.50;;;;;;;33.43;33.31;94951.91;4936022;29;20210;-78
2022/07/05 09:25:14;;;;;;;4.93;3.53;;;;;;;33.52;32.18;94955.25;4933072;29;20190;-81
2022/07/05 09:27:51;;;;;;;10.15;4.05;;;;;;;33.19;32.38;94937.28;4935800;29;20175;-82
2022/07/05 09:30:31;;;;;;;8.68;4.18;;;;;;;32.76;32.42;94949.03;4936105;29;20597;-81
2022/07/05 09:33:02;;;;;;;9.38;3.95;;;;;;;32.43;33.33;94918.50;4936070;29;20152;-81
2022/07/05 09:35:28;;;;;;;15.75;8.27;;;;;;;32.43;33.58;94941.09;4935765;29;20210;-81
2022/07/05 09:37:54;;;;;;;9.27;5.07;;;;;;;32.30;35.05;94936.03;4948784;29;20253;-80
2022/07/05 09:40:19;;;;;;;8.98;4.25;;;;;;;32.41;35.45;94937.13;4955105;29;20186;-80
2022/07/05 09:42:45;;;;;;;6.55;3.88;;;;;;;32.36;36.77;94882.84;4954471;29;20573;-81
2022/07/05 09:45:10;;;;;;;17.83;4.20;;;;;;;32.95;34.24;94926.53;4954695;29;20654;-81
2022/07/05 09:47:35;;;;;;;14.93;4.95;;;;;;;33.18;33.99;94922.03;4953926;28;20197;-81
2022/07/05 09:50:09;;;;;;;6.78;3.65;;;;;;;33.36;31.87;94924.44;5077774;28;20548;-81
2022/07/05 09:52:42;;;;;;;8.20;4.00;;;;;;;33.34;32.64;94922.84;5078229;28;20209;-81
2022/07/05 09:55:19;;;;;;;7.35;3.90;;;;;;;33.27;32.95;94898.13;5084609;28;20174;-83
2022/07/05 09:57:50;;;;;;;10.63;4.40;;;;;;;33.30;33.15;94916.50;5077427;28;20178;-82
2022/07/05 10:00:21;;;;;;;8.10;4.20;;;;;;;32.69;32.87;94902.50;5077544;28;20591;-83
2022/07/05 10:02:52;;;;;;;5.00;3.90;;;;;;;32.59;33.36;94905.69;5086984;28;20165;-82
2022/07/05 10:05:18;;;;;;;6.30;4.22;;;;;;;32.40;34.41;94903.63;5087957;28;20629;-83
2022/07/05 10:07:49;;;;;;;7.43;3.92;;;;;;;32.41;34.46;94907.94;5089147;28;20177;-79
2022/07/05 10:10:22;;;;;;;8.05;4.05;;;;;;;32.60;33.85;94899.91;5085457;28;20181;-81
2022/07/05 10:12:49;;;;;;;7.22;4.35;;;;;;;32.57;34.33;94903.31;5077361;28;20245;-83
2022/07/05 10:15:23;;;;;;;6.80;3.80;;;;;;;32.35;33.97;94905.78;5068754;28;20513;-78
2022/07/05 10:17:51;;;;;;;6.00;4.32;;;;;;;32.16;35.57;94901.00;5074987;28;20173;-80
2022/07/05 10:20:41;;;;;;;13.60;4.50;;;;;;;32.26;38.36;94891.53;5077185;28;20166;-79
2022/07/05 10:23:11;;;;;;;7.82;4.30;;;;;;;32.20;35.59;94891.78;5086978;28;20169;-79
2022/07/05 10:25:38;;;;;;;12.40;4.13;;;;;;;32.03;36.40;94867.53;5089191;28;20180;-78
2022/07/05 10:28:05;;;;;;;7.85;4.53;;;;;;;32.01;34.91;94861.63;5072016;28;20248;-78
2022/07/05 10:30:31;;;;;;;6.65;4.22;;;;;;;31.84;34.79;94887.22;5080200;28;20182;-79
2022/07/05 10:32:58;;;;;;;9.65;4.28;;;;;;;31.79;35.28;94882.03;5079737;28;20234;-80
2022/07/05 10:35:24;;;;;;;7.95;4.10;;;;;;;31.90;35.72;94889.72;5077032;28;20174;-79
2022/07/05 10:37:49;;;;;;;9.82;4.13;;;;;;;31.76;36.51;94882.69;5072191;28;20193;-77
2022/07/05 10:40:18;;;;;;;7.90;4.65;;;;;;;31.81;36.06;94868.84;5086637;28;20170;-77
2022/07/05 10:42:48;;;;;;;4.15;3.72;;;;;;;31.82;35.33;94845.13;5078418;28;20578;-79
2022/07/05 10:45:27;;;;;;;6.32;4.03;;;;;;;31.73;35.26;94874.44;5071320;28;20511;-79
2022/07/05 10:48:24;;;;;;;5.97;3.97;;;;;;;31.63;35.39;94867.53;5059451;28;20178;-78
2022/07/05 10:50:55;;;;;;;6.13;4.55;;;;;;;31.62;36.56;94868.66;5070945;28;20193;-78
2022/07/05 10:53:24;;;;;;;10.32;4.43;;;;;;;31.64;35.84;94866.41;5079380;28;20193;-77
2022/07/05 10:55:59;;;;;;;7.55;3.65;;;;;;;31.75;35.67;94870.22;5078698;28;20717;-78
2022/07/05 10:58:36;;;;;;;8.75;4.22;;;;;;;31.78;35.83;94860.56;5087147;28;20234;-79
2022/07/05 11:01:20;;;;;;;8.77;4.32;;;;;;;31.93;36.69;94867.22;5076591;28;20182;-78
2022/07/05 11:04:00;;;;;;;7.60;4.60;;;;;;;32.09;35.05;94860.66;5065951;28;20190;-78
2022/07/05 11:06:49;;;;;;;6.97;3.58;;;;;;;32.17;34.48;94853.53;5057859;28;20668;-80
2022/07/05 11:09:16;;;;;;;7.28;4.82;;;;;;;32.10;34.93;94850.56;5060962;28;20567;-77
2022/07/05 11:11:47;;;;;;;5.68;3.70;;;;;;;32.06;34.93;94850.50;5064121;28;20617;-79
2022/07/05 11:14:19;;;;;;;5.82;3.55;;;;;;;32.17;35.22;94845.38;5038036;28;20178;-79
2022/07/05 11:16:45;;;;;;;5.10;3.45;;;;;;;32.12;34.42;94842.84;5069419;28;20178;-79
2022/07/05 11:19:17;;;;;;;10.38;4.00;;;;;;;31.93;33.81;94839.97;5061986;28;20718;-79
2022/07/05 11:22:05;;;;;;;10.20;3.63;;;;;;;32.07;34.41;94840.38;5068384;28;20183;-77
2022/07/05 11:24:35;;;;;;;4.78;3.70;;;;;;;32.11;34.47;94830.34;5073222;28;20174;-78
2022/07/05 11:27:08;;;;;;;6.97;3.90;;;;;;;32.11;35.26;94824.91;5063693;28;20204;-79
2022/07/05 11:29:51;;;;;;;9.05;4.15;;;;;;;32.05;37.85;94799.84;5061171;28;20226;-80
2022/07/05 11:32:20;;;;;;;5.15;3.88;;;;;;;32.31;35.62;94829.38;5065288;28;20190;-79
2022/07/05 11:35:07;;;;;;;7.10;4.03;;;;;;;32.38;34.95;94826.06;5064611;28;20173;-79
2022/07/05 11:37:34;;;;;;;6.50;4.00;;;;;;;32.26;36.02;94832.34;5058423;28;20699;-79